Pagrindinis puslapis
METAR-TAF:

METAR-TAF

Oro uostai :

Fairbanks, Aliaska, Jungtinės Amerikos Valstijos

platuma: 64-48-14N, ilguma: 147-52-34W, Aukštis: 132 m

Dabartinis oras

Ataskaita buvo paskelbta 14 minutes, ne 03:53 UTC
Ramus vėjas
Temperatūra -21°C
Drėgmė 77%
Slėgis 1017 hPa
Matomumas: 16.1 km
Su prošvaistėmis ne aukštis 3500 ft
Su prošvaistėmis ne aukštis 5000 ft
Apsiniaukę ne aukštis 11000 ft
sniegas

METAR: PAFA 170353Z 00000KT 10SM -SN BKN035 BKN050 OVC110 M21/M24 A3004 RMK AO2 SLP193 T12061244

Laikas: 19:07 (04:07 UTC)

Prognozė

Ataskaita buvo paskelbta 4 valandos ir 29 minutes, ne 23:38 UTC
Prognozė galioja nuo 17 metu 00 UTC su 18 metu 06 UTC
Vėjas 2 kt nuo kintamojo kryptimis
Matomumas: 10 km
Su prošvaistėmis ne aukštis 4000 ft
Su prošvaistėmis ne aukštis 11000 ft
Nuo 17 metu 1400 UTC
Vėjas 2 kt nuo kintamojo kryptimis
Matomumas: 10 km
Išsisklaidę debesys ne aukštis 4000 ft
Su prošvaistėmis ne aukštis 11000 ft

TAF: PAFA 162338Z 1700/1806 VRB02KT P6SM BKN040 BKN110 FM171400 VRB02KT P6SM SCT040 BKN110

Orai ataskaitas ir orų prognozės (METAR, TAF).

turimą stotys yra geltonos ir raudonos taškus žemėlapyje.

Perkelti pele per norėdami pamatyti stoties vardą.

Tada spustelėkite, norėdami matyti oro stebėjimo ir prognozės.

Norėdami pakeisti žemėlapį: spustelėkite ant žalios mygtukų su juodo kryžiaus žemyn,; žalią mygtuką su brūkšneliu, jei norite nutolinti; arba žalių rodyklių gretimoms žemėlapius.


METAR-TAF: